»·PEaware :: SWA1207 KSAN-KLAS

SWA1207 :: KSAN-KLAS

FLIGHT INFORMATION

Flight Status: Arrived
Operator:
Southwest Airlines
More flights by this operator :: More flights under this callsign
Pilot: Dave P. (45)
Aircraft: BOEING 737-800
(B738)
More flights by this aircraft type
Origin: KSAN San Diego Intl-Lindbergh
United States
Destination: KLAS McCarran Intl
United States
More flights between these airports :: More routes between these airports
Route: +PADRZ2 CHKNN SEBBY YELAH MISEN KEPEC6
File this flight plan on PilotEdge
Remarks:
Altitude:
(Current/Filed)
29,000ft
Speed:
(Current/Filed)
455kts
Departed: 15-Aug-20 10:00 AM
Arrived: 15-Aug-20 10:53 AM
Distance/Time
Traveled:
225nm/0:53
Distance/Time
To Go:
Arrived

Flight Plot

Page will automatically refresh every two minutes.

Flight plan parsing failed; only flown route is shown


Map Options




Map Legend


Flown Route
Filed Route
Departure Airport
Arrival Airport
Navaid (VOR, NDB)
Fix

Horizontal Profiles

Position Reports

Time Latitude Longitude Heading Altitude Ground
Speed
15-Aug-20 09:32 32.732865 -117.195501 274 23ft 0kts
15-Aug-20 09:33 32.732865 -117.195501 274 23ft 0kts
15-Aug-20 09:34 32.732865 -117.195501 274 23ft 0kts
15-Aug-20 09:35 32.732865 -117.195501 274 23ft 0kts
15-Aug-20 09:36 32.732865 -117.195501 274 23ft 0kts
15-Aug-20 09:37 32.732865 -117.195501 274 23ft 0kts
15-Aug-20 09:38 32.732865 -117.195501 274 23ft 0kts
15-Aug-20 09:39 32.732865 -117.195501 274 23ft 0kts
15-Aug-20 09:40 32.732865 -117.195501 274 23ft 0kts
15-Aug-20 09:41 32.732865 -117.195501 274 23ft 0kts
15-Aug-20 09:42 32.732865 -117.195501 274 23ft 0kts
15-Aug-20 09:43 32.732865 -117.195501 274 23ft 0kts
15-Aug-20 09:44 32.732865 -117.195501 274 23ft 0kts
15-Aug-20 09:45 32.732865 -117.195501 274 23ft 0kts
15-Aug-20 09:46 32.732865 -117.195501 274 23ft 0kts
15-Aug-20 09:47 32.732865 -117.195501 274 23ft 0kts
15-Aug-20 09:48 32.732865 -117.195501 274 23ft 0kts
15-Aug-20 09:49 32.732865 -117.195501 274 23ft 0kts
15-Aug-20 09:49 32.732865 -117.195501 274 23ft 0kts
15-Aug-20 09:51 32.732859 -117.195411 274 23ft 2kts
15-Aug-20 09:52 32.732679 -117.194841 11 23ft 1kts
15-Aug-20 09:52 32.732668 -117.194844 11 23ft 0kts
15-Aug-20 09:54 32.732669 -117.194844 11 23ft 0kts
15-Aug-20 09:55 32.733168 -117.192334 106 23ft 16kts
15-Aug-20 09:55 32.731873 -117.186994 105 23ft 24kts
15-Aug-20 09:56 32.730161 -117.179935 106 23ft 20kts
15-Aug-20 09:57 32.729538 -117.176699 70 23ft 0kts
15-Aug-20 09:59 32.730081 -117.175618 333 23ft 9kts
15-Aug-20 09:59 32.733223 -117.188281 286 23ft 133kts
15-Aug-20 10:00 32.747585 -117.239871 303 1978ft 197kts
15-Aug-20 10:01 32.789164 -117.302722 309 3980ft 266kts
15-Aug-20 10:02 32.836251 -117.374923 309 6875ft 285kts
15-Aug-20 10:03 32.885822 -117.452016 308 9567ft 301kts
15-Aug-20 10:04 32.940102 -117.536490 307 11279ft 354kts
15-Aug-20 10:05 33.003470 -117.635242 306 13371ft 385kts
15-Aug-20 10:06 33.071393 -117.737328 314 15998ft 401kts
15-Aug-20 10:07 33.158078 -117.825405 319 18528ft 416kts
15-Aug-20 10:08 33.248367 -117.915356 320 20783ft 430kts
15-Aug-20 10:09 33.338831 -118.003423 321 22692ft 442kts
15-Aug-20 10:10 33.435742 -118.098097 320 24395ft 455kts
15-Aug-20 10:11 33.529826 -118.190740 320 25946ft 463kts
15-Aug-20 10:12 33.640230 -118.272269 336 27376ft 473kts
15-Aug-20 10:13 33.767445 -118.289994 21 28839ft 473kts
15-Aug-20 10:14 33.854770 -118.180526 61 28915ft 462kts
15-Aug-20 10:15 33.922485 -118.060855 56 28909ft 463kts
15-Aug-20 10:16 33.992089 -117.943178 56 28916ft 463kts
15-Aug-20 10:17 34.066524 -117.816460 56 28939ft 463kts
15-Aug-20 10:18 34.145853 -117.693346 51 28966ft 464kts
15-Aug-20 10:19 34.228361 -117.573566 52 28977ft 464kts
15-Aug-20 10:20 34.310381 -117.452927 51 28999ft 464kts
15-Aug-20 10:21 34.392445 -117.332828 51 29033ft 464kts
15-Aug-20 10:22 34.474174 -117.212079 51 29070ft 463kts
15-Aug-20 10:23 34.555768 -117.090994 51 29144ft 463kts
15-Aug-20 10:24 34.637183 -116.969820 51 29162ft 462kts
15-Aug-20 10:25 34.718443 -116.848875 51 29111ft 462kts
15-Aug-20 10:26 34.799317 -116.727300 51 29052ft 459kts
15-Aug-20 10:27 34.884803 -116.614280 39 28791ft 453kts
15-Aug-20 10:28 34.981354 -116.521683 39 26809ft 435kts
15-Aug-20 10:29 35.074671 -116.430857 39 24675ft 424kts
15-Aug-20 10:30 35.159264 -116.334231 47 22983ft 414kts
15-Aug-20 10:31 35.237890 -116.233977 46 21453ft 401kts
15-Aug-20 10:32 35.314577 -116.137102 46 19978ft 392kts
15-Aug-20 10:33 35.389936 -116.042456 46 18529ft 383kts
15-Aug-20 10:34 35.463654 -115.949645 46 17087ft 375kts
15-Aug-20 10:35 35.535743 -115.858359 46 15693ft 368kts
15-Aug-20 10:36 35.605607 -115.769266 46 14351ft 353kts
15-Aug-20 10:37 35.670701 -115.686148 46 13108ft 325kts
15-Aug-20 10:38 35.730961 -115.609164 46 13015ft 310kts
15-Aug-20 10:39 35.808717 -115.570588 0 13023ft 313kts
15-Aug-20 10:40 35.895894 -115.567756 2 13027ft 313kts
15-Aug-20 10:41 35.979195 -115.545702 43 12911ft 314kts
15-Aug-20 10:42 36.007583 -115.446347 69 11760ft 301kts
15-Aug-20 10:43 36.029396 -115.351875 91 10766ft 285kts
15-Aug-20 10:44 36.022690 -115.258486 94 10174ft 257kts
15-Aug-20 10:45 36.016452 -115.171440 93 9082ft 252kts
15-Aug-20 10:46 36.023098 -115.093386 38 8374ft 220kts
15-Aug-20 10:47 36.077674 -115.061754 22 7083ft 215kts
15-Aug-20 10:48 36.127906 -115.037288 358 6001ft 185kts
15-Aug-20 10:49 36.158424 -115.083437 296 4421ft 173kts
15-Aug-20 10:50 36.137524 -115.129321 216 3558ft 160kts
15-Aug-20 10:51 36.098495 -115.153621 204 2273ft 149kts
15-Aug-20 10:52 36.081628 -115.162143 97 2189ft 12kts
15-Aug-20 10:53 36.081631 -115.156629 90 2189ft 19kts
15-Aug-20 10:54 36.078776 -115.152692 91 2189ft 12kts
15-Aug-20 10:55 36.078738 -115.147339 38 2189ft 13kts
15-Aug-20 10:56 36.079564 -115.146705 27 2189ft 0kts
15-Aug-20 10:57 36.079564 -115.146705 27 2189ft 0kts
15-Aug-20 10:58 36.079564 -115.146705 27 2189ft 0kts
15-Aug-20 10:59 36.079564 -115.146705 27 2189ft 0kts
15-Aug-20 11:00 36.079564 -115.146705 27 2189ft 0kts
15-Aug-20 11:01 36.079564 -115.146705 27 2189ft 0kts
15-Aug-20 11:02 36.079564 -115.146705 27 2189ft 0kts
15-Aug-20 11:03 36.079564 -115.146705 27 2189ft 0kts
15-Aug-20 11:04 36.079564 -115.146705 27 2189ft 0kts
15-Aug-20 11:05 36.079564 -115.146705 27 2189ft 0kts
15-Aug-20 11:06 36.079564 -115.146705 27 2189ft 0kts

Navigation Log

Ident Type
Flight plan parsing failed, navigation log unavailable